Barrow-in-Furness, United Kingdom
Current Conditions -  °F | °C
As of 7:20 AM on Sunday 23 Nov 2014 (Local Time) from EGGP Reporting Station
Scattered Clouds Scattered Clouds  
Wind Chill: 44°   Ceiling: Unl
Heat Index: 46°   Visibility: 6mi
Dew Point: 45°   Wind: 6mph
Humidity: 93%   Direction: 280°W
Pressure: 30.03"   Gusts: NA
Location:  54.12°N, 3.23°W
Report Text: EGGP 230720Z 28005KT 9999 SCT024 08/07 Q1017
Loading
Personal Weather Stations






























Interactive Weather Map New forecast layout! Learn more

10-Day Weather Forecast

Advertisements
Track Severe Weather on mobile